createdAt,value
2022-11-22T00:00:17.553Z,101312.50
2022-11-22T00:01:19.322Z,101327.91
2022-11-22T00:02:21.124Z,101321.72
2022-11-22T00:03:22.972Z,101326.34
2022-11-22T00:04:24.649Z,101325.38
2022-11-22T00:05:26.588Z,101309.38
2022-11-22T00:06:28.307Z,101325.50
2022-11-22T00:07:30.010Z,101317.72
2022-11-22T00:08:33.465Z,101325.50
2022-11-22T00:09:35.302Z,101315.66
2022-11-22T00:10:37.193Z,101327.19
2022-11-22T00:11:38.857Z,101315.44
2022-11-22T00:12:40.858Z,101322.00
2022-11-22T00:13:42.576Z,101324.19
2022-11-22T00:14:44.306Z,101322.09
2022-11-22T00:15:46.189Z,101322.09
2022-11-22T00:16:48.055Z,101329.16
2022-11-22T00:17:49.777Z,101333.66
2022-11-22T00:18:51.447Z,101328.31
2022-11-22T00:19:53.194Z,101322.50
2022-11-22T00:20:55.534Z,101325.66
2022-11-22T00:21:57.228Z,101322.09
2022-11-22T00:22:58.958Z,101319.53
2022-11-22T00:24:00.699Z,101303.47
2022-11-22T00:25:02.448Z,101321.25
2022-11-22T00:26:04.212Z,101324.91
2022-11-22T00:27:06.027Z,101327.56
2022-11-22T00:28:07.830Z,101306.84
2022-11-22T00:29:09.701Z,101329.41
2022-11-22T00:30:11.656Z,101324.19
2022-11-22T00:31:13.422Z,101317.84
2022-11-22T00:32:15.584Z,101306.84
2022-11-22T00:33:17.335Z,101300.66
2022-11-22T00:34:19.241Z,101297.25
2022-11-22T00:35:20.905Z,101316.16
2022-11-22T00:36:22.852Z,101305.47
2022-11-22T00:37:24.902Z,101313.47
2022-11-22T00:38:26.690Z,101313.47
2022-11-22T00:39:28.788Z,101302.78
2022-11-22T00:40:30.882Z,101305.47
2022-11-22T00:41:32.574Z,101310.81
2022-11-22T00:42:34.307Z,101308.13
2022-11-22T00:43:36.122Z,101299.66
2022-11-22T00:44:37.840Z,101308.28
2022-11-22T00:45:42.594Z,101286.81
2022-11-22T00:46:44.451Z,101312.50
2022-11-22T00:47:46.158Z,101309.97
2022-11-22T00:48:47.870Z,101304.63
2022-11-22T00:49:49.648Z,101312.50
2022-11-22T00:50:51.596Z,101312.78
2022-11-22T00:51:53.307Z,101306.72
2022-11-22T00:52:54.969Z,101312.78
2022-11-22T00:53:56.642Z,101306.59
2022-11-22T00:54:58.318Z,101304.91
2022-11-22T00:55:59.998Z,101305.72
2022-11-22T00:57:01.715Z,101300.91
2022-11-22T00:58:03.453Z,101318.28
2022-11-22T00:59:05.194Z,101290.75
2022-11-22T01:00:07.594Z,101320.09
2022-11-22T01:01:09.341Z,101313.75
2022-11-22T01:02:11.198Z,101325.44
2022-11-22T01:03:13.500Z,101318.38
2022-11-22T01:04:15.275Z,101316.44
2022-11-22T01:05:18.190Z,101319.25
2022-11-22T01:06:20.350Z,101323.63
2022-11-22T01:07:22.044Z,101326.28
2022-11-22T01:08:23.922Z,101309.19
2022-11-22T01:09:25.819Z,101328.25
2022-11-22T01:10:27.477Z,101325.44
2022-11-22T01:11:29.207Z,101297.59
2022-11-22T01:12:31.117Z,101322.03
2022-11-22T01:13:33.175Z,101331.75
2022-11-22T01:14:34.913Z,101330.06
2022-11-22T01:15:36.820Z,101323.75
2022-11-22T01:16:38.560Z,101327.41
2022-11-22T01:17:40.568Z,101318.09
2022-11-22T01:18:42.926Z,101326.41
2022-11-22T01:19:44.671Z,101322.91
2022-11-22T01:20:46.437Z,101322.03
2022-11-22T01:21:48.205Z,101322.91
2022-11-22T01:22:50.550Z,101325.69
2022-11-22T01:23:52.250Z,101324.88
2022-11-22T01:24:53.929Z,101324.88
2022-11-22T01:25:55.649Z,101325.69
2022-11-22T01:26:57.491Z,101322.03
2022-11-22T01:27:59.186Z,101324.72
2022-11-22T01:29:01.280Z,101321.47
2022-11-22T01:30:04.095Z,101320.34
2022-11-22T01:31:05.799Z,101302.41
2022-11-22T01:32:07.530Z,101318.66
2022-11-22T01:33:10.394Z,101317.81
2022-11-22T01:34:12.126Z,101323.03
2022-11-22T01:35:14.137Z,101331.91
2022-11-22T01:36:15.976Z,101320.34
2022-11-22T01:37:17.887Z,101326.69
2022-11-22T01:38:19.756Z,101324.00
2022-11-22T01:39:21.447Z,101325.69
2022-11-22T01:40:23.207Z,101319.50
2022-11-22T01:41:25.026Z,101323.03
2022-11-22T01:42:58.879Z,101322.91
2022-11-22T01:44:29.966Z,101324.66
2022-11-22T01:45:31.766Z,101328.16
2022-11-22T01:46:38.402Z,101321.66
2022-11-22T01:47:40.334Z,101328.00
2022-11-22T01:48:48.640Z,101326.28
2022-11-22T01:50:12.673Z,101318.53
2022-11-22T01:51:20.817Z,101326.03
2022-11-22T01:52:26.001Z,101318.28
2022-11-22T01:53:36.004Z,101325.44
2022-11-22T01:54:41.381Z,101329.09
2022-11-22T01:55:44.373Z,101321.06
2022-11-22T01:56:50.580Z,101323.03
2022-11-22T01:57:52.957Z,101321.31
2022-11-22T01:59:00.661Z,101316.97
2022-11-22T02:00:08.069Z,101317.81
2022-11-22T02:01:16.651Z,101329.09
2022-11-22T02:02:18.608Z,101324.00
2022-11-22T02:03:22.382Z,101317.94
2022-11-22T02:04:27.050Z,101316.13
2022-11-22T02:05:32.942Z,101318.91
2022-11-22T02:06:47.473Z,101315.25
2022-11-22T02:08:15.014Z,101317.41
2022-11-22T02:09:17.024Z,101317.41
2022-11-22T02:10:20.825Z,101322.03
2022-11-22T02:11:23.219Z,101303.13
2022-11-22T02:12:29.302Z,101318.91
2022-11-22T02:13:37.331Z,101311.88
2022-11-22T02:14:40.518Z,101302.53
2022-11-22T02:15:43.112Z,101317.09
2022-11-22T02:16:47.833Z,101313.84
2022-11-22T02:17:49.641Z,101316.25
2022-11-22T02:18:51.400Z,101319.91
2022-11-22T02:19:53.741Z,101311.44
2022-11-22T02:20:55.834Z,101316.41
2022-11-22T02:22:03.133Z,101311.16
2022-11-22T02:23:07.753Z,101312.75
2022-11-22T02:24:36.228Z,101301.19
2022-11-22T02:25:40.735Z,101307.84
2022-11-22T02:26:42.726Z,101291.84
2022-11-22T02:27:44.511Z,101318.91
2022-11-22T02:28:46.445Z,101311.03
2022-11-22T02:29:48.134Z,101322.56
2022-11-22T02:30:49.905Z,101321.75
2022-11-22T02:31:51.597Z,101321.75
2022-11-22T02:32:53.404Z,101316.50
2022-11-22T02:34:01.349Z,101323.69
2022-11-22T02:35:16.017Z,101318.91
2022-11-22T02:36:17.841Z,101307.19
2022-11-22T02:37:25.382Z,101321.75
2022-11-22T02:38:32.638Z,101314.69
2022-11-22T02:39:34.468Z,101324.28
2022-11-22T02:41:17.154Z,101321.31
2022-11-22T02:42:18.897Z,101321.22
2022-11-22T02:43:23.644Z,101322.31
2022-11-22T02:44:26.053Z,101320.63
2022-11-22T02:45:28.122Z,101322.56
2022-11-22T02:46:29.964Z,101320.03
2022-11-22T02:47:31.625Z,101315.19
2022-11-22T02:48:33.704Z,101328.19
2022-11-22T02:49:35.515Z,101324.78
2022-11-22T02:50:37.387Z,101328.34
2022-11-22T02:51:39.079Z,101323.69
2022-11-22T02:52:40.949Z,101327.34
2022-11-22T02:53:48.208Z,101323.94
2022-11-22T02:54:49.884Z,101325.50
2022-11-22T02:55:51.632Z,101328.34
2022-11-22T02:56:53.360Z,101322.84
2022-11-22T02:57:55.633Z,101323.00
2022-11-22T02:58:57.305Z,101319.34
2022-11-22T02:59:58.993Z,101326.50
2022-11-22T03:01:00.863Z,101328.34
2022-11-22T03:02:03.537Z,101326.50
2022-11-22T03:03:06.028Z,101315.78
2022-11-22T03:04:07.861Z,101305.03
2022-11-22T03:05:09.920Z,101314.38
2022-11-22T03:06:11.720Z,101323.00
2022-11-22T03:07:13.423Z,101311.69
2022-11-22T03:08:15.136Z,101322.13
2022-11-22T03:09:16.790Z,101308.56
2022-11-22T03:10:18.757Z,101321.16
2022-11-22T03:11:20.525Z,101323.81
2022-11-22T03:12:22.221Z,101326.50
2022-11-22T03:13:23.901Z,101325.66
2022-11-22T03:14:25.752Z,101324.78
2022-11-22T03:15:27.486Z,101324.78
2022-11-22T03:16:30.936Z,101330.16
2022-11-22T03:17:32.645Z,101320.69
2022-11-22T03:18:35.589Z,101329.28
2022-11-22T03:19:37.265Z,101326.50
2022-11-22T03:20:38.961Z,101327.47
2022-11-22T03:21:42.138Z,101323.09
2022-11-22T03:22:43.852Z,101323.09
2022-11-22T03:23:45.520Z,101331.84
2022-11-22T03:24:47.256Z,101333.69
2022-11-22T03:25:49.074Z,101324.78
2022-11-22T03:26:50.839Z,101326.75
2022-11-22T03:27:52.650Z,101323.00
2022-11-22T03:28:54.383Z,101326.50
2022-11-22T03:29:56.237Z,101328.34
2022-11-22T03:30:57.966Z,101316.78
2022-11-22T03:31:59.744Z,101324.78
2022-11-22T03:33:01.445Z,101315.78
2022-11-22T03:34:03.191Z,101309.28
2022-11-22T03:35:05.345Z,101322.13
2022-11-22T03:36:07.075Z,101319.44
2022-11-22T03:37:08.758Z,101323.09
2022-11-22T03:38:10.422Z,101323.09
2022-11-22T03:39:12.266Z,101319.44
2022-11-22T03:40:14.050Z,101322.13
2022-11-22T03:41:15.794Z,101310.00
2022-11-22T03:42:21.619Z,101326.59
2022-11-22T03:43:24.393Z,101324.78
2022-11-22T03:44:26.091Z,101321.16
2022-11-22T03:45:31.276Z,101319.44
2022-11-22T03:46:33.228Z,101325.50
2022-11-22T03:47:34.953Z,101322.13
2022-11-22T03:48:36.704Z,101308.31
2022-11-22T03:49:38.464Z,101316.66
2022-11-22T03:50:40.705Z,101322.00
2022-11-22T03:51:42.484Z,101325.50
2022-11-22T03:52:44.161Z,101293.06
2022-11-22T03:53:45.842Z,101323.81
2022-11-22T03:54:47.638Z,101323.69
2022-11-22T03:55:49.383Z,101322.84
2022-11-22T03:56:51.165Z,101332.72
2022-11-22T03:57:53.011Z,101324.53
2022-11-22T03:58:54.723Z,101328.19
2022-11-22T03:59:56.420Z,101329.06
2022-11-22T04:00:58.526Z,101325.50
2022-11-22T04:02:00.452Z,101325.50
2022-11-22T04:03:02.386Z,101326.38
2022-11-22T04:04:04.330Z,101334.25
2022-11-22T04:05:06.560Z,101333.53
2022-11-22T04:06:08.256Z,101327.22
2022-11-22T04:07:10.069Z,101328.19
2022-11-22T04:08:11.773Z,101307.84
2022-11-22T04:09:13.556Z,101329.16
2022-11-22T04:10:17.902Z,101330.03
2022-11-22T04:11:23.785Z,101326.22
2022-11-22T04:12:25.541Z,101323.81
2022-11-22T04:13:47.221Z,101329.88
2022-11-22T04:15:07.191Z,101336.53
2022-11-22T04:16:08.873Z,101326.56
2022-11-22T04:17:13.903Z,101330.47
2022-11-22T04:18:15.749Z,101324.41
2022-11-22T04:19:17.511Z,101332.56
2022-11-22T04:20:43.043Z,101338.78
2022-11-22T04:21:44.749Z,101306.34
2022-11-22T04:22:55.621Z,101331.31
2022-11-22T04:24:15.768Z,101334.97
2022-11-22T04:25:17.509Z,101328.53
2022-11-22T04:26:19.174Z,101328.78
2022-11-22T04:27:20.921Z,101332.44
2022-11-22T04:28:35.226Z,101328.19
2022-11-22T04:29:46.818Z,101324.00
2022-11-22T04:31:07.533Z,101323.28
2022-11-22T04:32:27.717Z,101331.03
2022-11-22T04:33:29.710Z,101327.41
2022-11-22T04:34:31.786Z,101318.34
2022-11-22T04:35:33.473Z,101317.50
2022-11-22T04:36:35.160Z,101319.19
2022-11-22T04:37:36.970Z,101327.22
2022-11-22T04:38:38.634Z,101322.84
2022-11-22T04:39:40.314Z,101321.16
2022-11-22T04:40:42.215Z,101322.00
2022-11-22T04:41:43.885Z,101321.16
2022-11-22T04:43:04.172Z,101317.63
2022-11-22T04:44:24.454Z,101311.44
2022-11-22T04:45:26.501Z,101327.66
2022-11-22T04:46:28.246Z,101321.59
2022-11-22T04:47:50.477Z,101320.31
2022-11-22T04:48:52.322Z,101322.31
2022-11-22T04:49:54.030Z,101325.25
2022-11-22T04:51:14.465Z,101321.84
2022-11-22T04:52:39.263Z,101322.56
2022-11-22T04:53:40.936Z,101315.97
2022-11-22T04:54:42.637Z,101317.22
2022-11-22T04:55:46.661Z,101321.03
2022-11-22T04:56:48.484Z,101310.44
2022-11-22T04:57:53.191Z,101319.44
2022-11-22T04:58:59.401Z,101318.34
2022-11-22T05:00:01.143Z,101305.75
2022-11-22T05:01:02.936Z,101321.16
2022-11-22T05:02:04.793Z,101317.75
2022-11-22T05:03:07.221Z,101320.53
2022-11-22T05:04:08.911Z,101315.09
2022-11-22T05:05:10.782Z,101316.78
2022-11-22T05:06:14.695Z,101319.56
2022-11-22T05:07:16.547Z,101323.09
2022-11-22T05:08:18.504Z,101320.44
2022-11-22T05:09:20.293Z,101318.72
2022-11-22T05:10:26.420Z,101323.09
2022-11-22T05:11:28.434Z,101319.44
2022-11-22T05:12:30.129Z,101315.09
2022-11-22T05:13:37.096Z,101317.75
2022-11-22T05:14:38.927Z,101309.03
2022-11-22T05:15:40.657Z,101315.78
2022-11-22T05:16:42.325Z,101318.59
2022-11-22T05:17:44.280Z,101308.69
2022-11-22T05:18:59.329Z,101313.38
2022-11-22T05:20:01.424Z,101317.50
2022-11-22T05:21:11.542Z,101318.47
2022-11-22T05:22:13.304Z,101314.09
2022-11-22T05:23:34.221Z,101321.16
2022-11-22T05:24:35.876Z,101319.06
2022-11-22T05:25:37.614Z,101320.16
2022-11-22T05:26:39.465Z,101319.44
2022-11-22T05:27:41.158Z,101325.66
2022-11-22T05:28:42.908Z,101319.44
2022-11-22T05:29:44.713Z,101328.44
2022-11-22T05:30:46.529Z,101336.47
2022-11-22T05:31:51.339Z,101327.59
2022-11-22T05:32:55.133Z,101322.25
2022-11-22T05:33:57.550Z,101330.25
2022-11-22T05:34:59.713Z,101320.44
2022-11-22T05:36:02.008Z,101332.09
2022-11-22T05:37:03.713Z,101326.59
2022-11-22T05:38:05.500Z,101325.78
2022-11-22T05:39:07.242Z,101332.94
2022-11-22T05:40:09.897Z,101324.19
2022-11-22T05:41:13.943Z,101324.09
2022-11-22T05:42:15.771Z,101326.75
2022-11-22T05:43:17.557Z,101330.16
2022-11-22T05:44:19.269Z,101322.13
2022-11-22T05:45:21.003Z,101321.41
2022-11-22T05:46:26.557Z,101315.19
2022-11-22T05:47:28.220Z,101311.25
2022-11-22T05:48:29.961Z,101319.44
2022-11-22T05:49:32.138Z,101320.44
2022-11-22T05:50:34.100Z,101316.06
2022-11-22T05:51:35.781Z,101299.69
2022-11-22T05:52:37.532Z,101315.19
2022-11-22T05:53:39.949Z,101311.53
2022-11-22T05:54:41.652Z,101309.03
2022-11-22T05:55:43.349Z,101307.00
2022-11-22T05:56:45.143Z,101314.38
2022-11-22T05:57:46.870Z,101318.72
2022-11-22T05:58:48.954Z,101308.84
2022-11-22T05:59:50.736Z,101324.78
2022-11-22T06:00:52.434Z,101308.56
2022-11-22T06:01:54.150Z,101329.28
2022-11-22T06:03:03.869Z,101323.09
2022-11-22T06:04:05.976Z,101326.50
2022-11-22T06:05:08.213Z,101299.13
2022-11-22T06:06:11.038Z,101315.16
2022-11-22T06:07:12.792Z,101320.53
2022-11-22T06:08:14.613Z,101326.50
2022-11-22T06:09:16.428Z,101320.81
2022-11-22T06:10:18.220Z,101335.22
2022-11-22T06:11:21.440Z,101333.41
2022-11-22T06:12:23.206Z,101327.81
2022-11-22T06:13:24.923Z,101335.69
2022-11-22T06:14:26.684Z,101330.22
2022-11-22T06:15:28.399Z,101318.09
2022-11-22T06:16:30.421Z,101318.66
2022-11-22T06:17:32.230Z,101325.88
2022-11-22T06:18:34.312Z,101331.81
2022-11-22T06:19:35.972Z,101330.84
2022-11-22T06:20:37.700Z,101333.13
2022-11-22T06:21:39.658Z,101333.69
2022-11-22T06:22:41.339Z,101330.75
2022-11-22T06:23:43.621Z,101326.97
2022-11-22T06:24:45.382Z,101326.72
2022-11-22T06:25:47.114Z,101315.28
2022-11-22T06:26:48.968Z,101320.81
2022-11-22T06:27:50.709Z,101328.31
2022-11-22T06:28:53.768Z,101330.72
2022-11-22T06:29:55.526Z,101337.47
2022-11-22T06:31:05.081Z,101335.28
2022-11-22T06:32:06.789Z,101327.72
2022-11-22T06:33:08.530Z,101326.59
2022-11-22T06:34:13.088Z,101316.75
2022-11-22T06:35:14.790Z,101314.34
2022-11-22T06:36:22.210Z,101318.59
2022-11-22T06:37:23.887Z,101317.06
2022-11-22T06:38:25.598Z,101316.06
2022-11-22T06:39:27.664Z,101318.47
2022-11-22T06:40:29.691Z,101308.47
2022-11-22T06:41:36.238Z,101318.91
2022-11-22T06:42:37.929Z,101319.34
2022-11-22T06:43:46.939Z,101315.66
2022-11-22T06:44:50.610Z,101308.91
2022-11-22T06:45:55.824Z,101313.28
2022-11-22T06:46:57.562Z,101319.09
2022-11-22T06:47:59.545Z,101307.53
2022-11-22T06:49:01.593Z,101315.13
2022-11-22T06:50:03.543Z,101320.38
2022-11-22T06:51:26.773Z,101314.84
2022-11-22T06:52:28.433Z,101324.75
2022-11-22T06:53:46.899Z,101317.72
2022-11-22T06:54:49.333Z,101317.16
2022-11-22T06:55:53.390Z,101318.13
2022-11-22T06:56:57.282Z,101312.19
2022-11-22T06:57:58.939Z,101320.53
2022-11-22T06:59:04.040Z,101314.31
2022-11-22T07:00:06.287Z,101313.59
2022-11-22T07:01:10.719Z,101324.75
2022-11-22T07:02:12.697Z,101324.47
2022-11-22T07:03:14.457Z,101307.53
2022-11-22T07:04:16.175Z,101317.56
2022-11-22T07:05:25.642Z,101307.13
2022-11-22T07:06:30.917Z,101325.88
2022-11-22T07:07:32.652Z,101312.75
2022-11-22T07:08:35.357Z,101323.91
2022-11-22T07:09:38.521Z,101315.16
2022-11-22T07:10:40.210Z,101318.81
2022-11-22T07:11:42.004Z,101313.47
2022-11-22T07:12:43.889Z,101328.06
2022-11-22T07:13:47.110Z,101315.16
2022-11-22T07:14:48.814Z,101330.56
2022-11-22T07:15:57.266Z,101330.72
2022-11-22T07:16:59.009Z,101328.06
2022-11-22T07:18:00.763Z,101326.78
2022-11-22T07:19:02.519Z,101332.16
2022-11-22T07:20:04.766Z,101330.44
2022-11-22T07:21:12.921Z,101295.84
2022-11-22T07:22:15.273Z,101326.63
2022-11-22T07:23:17.494Z,101338.22
2022-11-22T07:24:19.220Z,101330.28
2022-11-22T07:25:21.282Z,101332.16
2022-11-22T07:26:26.371Z,101330.44
2022-11-22T07:27:28.054Z,101341.72
2022-11-22T07:28:29.901Z,101325.38
2022-11-22T07:29:31.914Z,101335.53
2022-11-22T07:30:33.814Z,101339.03
2022-11-22T07:31:35.630Z,101341.72
2022-11-22T07:32:37.537Z,101333.84
2022-11-22T07:33:39.773Z,101333.84
2022-11-22T07:34:41.466Z,101332.84
2022-11-22T07:35:43.301Z,101319.16
2022-11-22T07:36:45.097Z,101334.66
2022-11-22T07:37:47.227Z,101330.16
2022-11-22T07:38:49.882Z,101331.16
2022-11-22T07:39:51.538Z,101332.84
2022-11-22T07:40:53.326Z,101333.69
2022-11-22T07:41:55.022Z,101327.06
2022-11-22T07:42:58.642Z,101320.00
2022-11-22T07:44:00.676Z,101331.16
2022-11-22T07:45:02.349Z,101331.16
2022-11-22T07:46:06.733Z,101340.03
2022-11-22T07:47:08.445Z,101333.84
2022-11-22T07:48:14.698Z,101334.66
2022-11-22T07:49:16.503Z,101334.53
2022-11-22T07:50:18.227Z,101332.84
2022-11-22T07:51:19.921Z,101336.50
2022-11-22T07:52:21.649Z,101334.13
2022-11-22T07:53:23.357Z,101321.09
2022-11-22T07:54:25.630Z,101338.34
2022-11-22T07:55:28.193Z,101337.50
2022-11-22T07:56:29.885Z,101339.19
2022-11-22T07:57:31.814Z,101342.88
2022-11-22T07:58:34.833Z,101334.81
2022-11-22T07:59:36.708Z,101341.00
2022-11-22T08:00:38.400Z,101342.00
2022-11-22T08:01:40.149Z,101337.50
2022-11-22T08:02:41.907Z,101342.88
2022-11-22T08:03:44.544Z,101346.53
2022-11-22T08:04:46.563Z,101334.25
2022-11-22T08:05:48.207Z,101337.50
2022-11-22T08:06:49.922Z,101335.81
2022-11-22T08:07:52.935Z,101337.50
2022-11-22T08:08:58.733Z,101338.34
2022-11-22T08:10:04.502Z,101338.34
2022-11-22T08:11:06.703Z,101333.84
2022-11-22T08:12:08.761Z,101335.66
2022-11-22T08:13:10.485Z,101337.50
2022-11-22T08:14:12.397Z,101333.66
2022-11-22T08:15:16.240Z,101339.47
2022-11-22T08:16:18.476Z,101338.50
2022-11-22T08:17:20.158Z,101334.13
2022-11-22T08:18:22.481Z,101343.84
2022-11-22T08:19:24.312Z,101344.84
2022-11-22T08:20:26.093Z,101325.88
2022-11-22T08:21:27.877Z,101342.16
2022-11-22T08:22:29.640Z,101340.47
2022-11-22T08:23:31.397Z,101349.34
2022-11-22T08:24:34.051Z,101340.31
2022-11-22T08:25:35.816Z,101349.34
2022-11-22T08:26:37.565Z,101347.66
2022-11-22T08:27:41.444Z,101353.88
2022-11-22T08:28:44.763Z,101347.81
2022-11-22T08:29:46.439Z,101347.66
2022-11-22T08:30:48.223Z,101353.88
2022-11-22T08:31:49.884Z,101353.88
2022-11-22T08:32:54.887Z,101355.84
2022-11-22T08:33:56.680Z,101359.25
2022-11-22T08:34:58.362Z,101359.25
2022-11-22T08:36:00.249Z,101353.16
2022-11-22T08:37:01.957Z,101352.19
2022-11-22T08:38:03.702Z,101354.00
2022-11-22T08:39:05.464Z,101366.56
2022-11-22T08:40:08.089Z,101356.69
2022-11-22T08:41:10.508Z,101354.13
2022-11-22T08:42:12.298Z,101366.56
2022-11-22T08:43:14.049Z,101363.97
2022-11-22T08:44:15.736Z,101369.25
2022-11-22T08:45:17.464Z,101355.63
2022-11-22T08:46:19.748Z,101376.44
2022-11-22T08:47:21.509Z,101381.78
2022-11-22T08:48:24.904Z,101355.81
2022-11-22T08:49:26.666Z,101379.00
2022-11-22T08:50:28.382Z,101370.22
2022-11-22T08:51:30.084Z,101371.94
2022-11-22T08:52:31.830Z,101381.78
2022-11-22T08:53:36.090Z,101383.63
2022-11-22T08:54:38.443Z,101376.31
2022-11-22T08:55:40.262Z,101380.69
2022-11-22T08:56:42.144Z,101383.38
2022-11-22T08:57:43.816Z,101369.75
2022-11-22T08:58:45.566Z,101382.66
2022-11-22T08:59:47.358Z,101380.81
2022-11-22T09:00:49.202Z,101386.03
2022-11-22T09:01:50.987Z,101380.06
2022-11-22T09:02:53.013Z,101389.72
2022-11-22T09:03:54.678Z,101384.34
2022-11-22T09:04:56.382Z,101397.59
2022-11-22T09:09:02.879Z,101388.88
2022-11-22T09:10:11.006Z,101377.00
2022-11-22T09:11:15.437Z,101380.41
2022-11-22T09:12:17.109Z,101383.78
2022-11-22T09:13:18.868Z,101387.47
2022-11-22T09:14:20.552Z,101391.13
2022-11-22T09:15:22.582Z,101380.69
2022-11-22T09:16:24.268Z,101384.19
2022-11-22T09:17:25.942Z,101379.00
2022-11-22T09:18:27.676Z,101381.50
2022-11-22T09:19:29.640Z,101387.75
2022-11-22T09:20:31.718Z,101384.19
2022-11-22T09:21:33.540Z,101373.28
2022-11-22T09:22:35.784Z,101385.06
2022-11-22T09:23:37.740Z,101366.38
2022-11-22T09:24:39.504Z,101385.19
2022-11-22T09:25:41.193Z,101383.38
2022-11-22T09:26:42.920Z,101386.03
2022-11-22T09:27:44.701Z,101377.28
2022-11-22T09:28:46.825Z,101388.72
2022-11-22T09:29:48.508Z,101385.06
2022-11-22T09:30:50.218Z,101386.88
2022-11-22T09:31:52.281Z,101380.69
2022-11-22T09:32:53.937Z,101377.84
2022-11-22T09:33:55.621Z,101384.06
2022-11-22T09:34:57.334Z,101381.38
2022-11-22T09:36:03.926Z,101388.56
2022-11-22T09:37:05.822Z,101379.00
2022-11-22T09:38:08.530Z,101380.41
2022-11-22T09:39:10.323Z,101383.91
2022-11-22T09:40:12.645Z,101388.44
2022-11-22T09:41:17.286Z,101380.41
2022-11-22T09:42:30.941Z,101373.34
2022-11-22T09:43:59.664Z,101362.03
2022-11-22T09:45:29.285Z,101373.03
2022-11-22T09:46:33.699Z,101372.22
2022-11-22T09:48:19.602Z,101382.94
2022-11-22T09:49:30.111Z,101386.31
2022-11-22T09:50:56.531Z,101377.56
2022-11-22T09:52:13.737Z,101385.63
2022-11-22T09:53:38.246Z,101384.63
2022-11-22T09:54:46.716Z,101382.06
2022-11-22T09:55:53.395Z,101378.84
2022-11-22T09:57:01.702Z,101383.50
2022-11-22T09:58:17.777Z,101362.16
2022-11-22T09:59:29.816Z,101385.19
2022-11-22T10:00:32.225Z,101383.34
2022-11-22T10:01:45.962Z,101389.00
2022-11-22T10:03:00.808Z,101387.03
2022-11-22T10:04:11.873Z,101378.84
2022-11-22T10:05:17.888Z,101386.91
2022-11-22T10:06:26.897Z,101388.88
2022-11-22T10:07:34.418Z,101383.63
2022-11-22T10:08:46.468Z,101385.19
2022-11-22T10:10:05.714Z,101382.38
2022-11-22T10:11:22.004Z,101380.38
2022-11-22T10:12:35.726Z,101381.25
2022-11-22T10:13:55.778Z,101380.25
2022-11-22T10:15:08.558Z,101385.47
2022-11-22T10:16:17.376Z,101376.88
2022-11-22T10:17:40.118Z,101385.63
2022-11-22T10:18:51.468Z,101382.94
2022-11-22T10:20:04.735Z,101390.97
2022-11-22T10:21:11.665Z,101387.31
2022-11-22T10:22:14.559Z,101387.44
2022-11-22T10:23:24.483Z,101390.28
2022-11-22T10:24:26.274Z,101354.53
2022-11-22T10:25:39.799Z,101387.72
2022-11-22T10:26:41.509Z,101393.66
2022-11-22T10:27:44.577Z,101395.66
2022-11-22T10:29:23.451Z,101392.97
2022-11-22T10:30:25.694Z,101379.28
2022-11-22T10:31:39.684Z,101387.59
2022-11-22T10:33:08.597Z,101386.31
2022-11-22T10:34:22.368Z,101389.44
2022-11-22T10:35:45.596Z,101391.00
2022-11-22T10:37:13.405Z,101390.84
2022-11-22T10:38:25.860Z,101402.56
2022-11-22T10:39:42.340Z,101400.16
2022-11-22T10:40:57.377Z,101398.47
2022-11-22T10:42:36.710Z,101398.06
2022-11-22T10:44:16.842Z,101398.06
2022-11-22T10:45:29.965Z,101393.41
2022-11-22T10:47:08.435Z,101392.53
2022-11-22T10:48:16.082Z,101388.16
2022-11-22T10:49:40.828Z,101394.78
2022-11-22T10:51:12.760Z,101398.19
2022-11-22T10:52:45.913Z,101396.78
2022-11-22T10:54:10.764Z,101391.53
2022-11-22T10:55:22.413Z,101395.22
2022-11-22T10:56:24.125Z,101391.81
2022-11-22T10:57:31.659Z,101391.41
2022-11-22T10:59:11.782Z,101386.75
2022-11-22T11:00:13.461Z,101390.84
2022-11-22T11:01:22.613Z,101380.56
2022-11-22T11:02:38.601Z,101384.34
2022-11-22T11:03:43.932Z,101383.25
2022-11-22T11:04:47.732Z,101383.53
2022-11-22T11:06:24.304Z,101369.09
2022-11-22T11:07:32.033Z,101387.16
2022-11-22T11:09:12.271Z,101387.72
2022-11-22T11:10:17.455Z,101382.94
2022-11-22T11:11:24.982Z,101380.81
2022-11-22T11:12:41.553Z,101373.63
2022-11-22T11:13:50.689Z,101390.13
2022-11-22T11:14:57.392Z,101382.25
2022-11-22T11:16:01.858Z,101387.72
2022-11-22T11:17:06.128Z,101379.69
2022-11-22T11:18:36.445Z,101385.47
2022-11-22T11:19:39.098Z,101353.31
2022-11-22T11:20:43.663Z,101380.41
2022-11-22T11:21:45.831Z,101380.41
2022-11-22T11:24:17.004Z,101380.41
2022-11-22T11:25:43.502Z,101386.88
2022-11-22T11:26:54.016Z,101385.19
2022-11-22T11:27:58.918Z,101388.84
2022-11-22T11:29:18.962Z,101378.84
2022-11-22T11:30:20.907Z,101372.78
2022-11-22T11:31:41.647Z,101386.34
2022-11-22T11:32:54.992Z,101379.81
2022-11-22T11:34:16.276Z,101381.22
2022-11-22T11:35:21.330Z,101377.00
2022-11-22T11:36:24.473Z,101387.88
2022-11-22T11:37:37.742Z,101383.50
2022-11-22T11:38:42.418Z,101381.81
2022-11-22T11:39:47.586Z,101383.66
2022-11-22T11:40:49.332Z,101383.66
2022-11-22T11:41:51.165Z,101392.69
2022-11-22T11:43:12.753Z,101386.06
2022-11-22T11:44:32.355Z,101383.22
2022-11-22T11:45:34.313Z,101386.75
2022-11-22T11:46:42.144Z,101381.69
2022-11-22T11:47:43.887Z,101386.06
2022-11-22T11:48:46.287Z,101382.66
2022-11-22T11:49:52.192Z,101371.94
2022-11-22T11:51:26.482Z,101381.53
2022-11-22T11:52:29.917Z,101385.59
2022-11-22T11:53:31.922Z,101373.91
2022-11-22T11:54:45.878Z,101384.19
2022-11-22T11:55:47.589Z,101388.84
2022-11-22T11:56:59.412Z,101394.94
2022-11-22T11:58:04.158Z,101378.69
2022-11-22T11:59:11.834Z,101376.19
2022-11-22T12:00:25.955Z,101393.94
2022-11-22T12:01:27.710Z,101396.50
2022-11-22T12:02:40.183Z,101384.66
2022-11-22T12:03:42.000Z,101395.63
2022-11-22T12:04:59.471Z,101400.28
2022-11-22T12:06:14.882Z,101383.78
2022-11-22T12:07:39.608Z,101401.69
2022-11-22T12:08:41.536Z,101396.50
2022-11-22T12:09:46.429Z,101402.69
2022-11-22T12:11:03.158Z,101394.66
2022-11-22T12:12:17.153Z,101399.03
2022-11-22T12:13:30.194Z,101392.25
2022-11-22T12:14:55.601Z,101409.75
2022-11-22T12:16:01.538Z,101397.63
2022-11-22T12:17:11.765Z,101403.56
2022-11-22T12:18:41.381Z,101398.47
2022-11-22T12:20:21.314Z,101405.53
2022-11-22T12:22:09.309Z,101406.94
2022-11-22T12:23:45.480Z,101414.13
2022-11-22T12:25:24.414Z,101406.38
2022-11-22T12:26:20.272Z,101409.22
2022-11-22T12:27:22.103Z,101405.94
2022-11-22T12:28:28.977Z,101411.72
2022-11-22T12:29:35.312Z,101404.66
2022-11-22T12:30:40.282Z,101399.88
2022-11-22T12:31:59.854Z,101405.81